Dortmund, Germany

2:53 PM CET on November 23, 2014 (GMT +0100)
Dortmund | Change Station
CLOSE
Current Station
Airport
Location: Dortmund,
Elevation: 417 ft
Nearby Weather Stations

Elev 417 ft 51.52 °N, 7.61 °E | Updated 3 minutes ago

Clear
Clear
59 °F
Feels Like 59 °F
N
10
Wind Variable Wind from South

Today
High -- | Low -- °F
--% Chance of Precip.
Yesterday
High -- | Low -- °F
Precip. -- in
8:00 AM 4:30 PM
New Moon, 1% visible
Pressure 30.01 in
Visibility -9999.0 miles
Clouds
Dew Point 46 °F
Humidity 63%
Rainfall 0.00 in
Snow Depth Not available.
UV Not available.
Pollen Not available.
Air Quality Not available.
Flu Activity Not available.
METAR EDLW 231350Z 19009KT CAVOK 15/08 Q1016 RMK ATIS U

More Conditions Fewer Conditions

Pressure 30.01 in
Visibility -9999.0 miles
Clouds
Dew Point 46 °F
Humidity 63%
Rainfall 0.00 in
Snow Depth Not available.
UV Not available.
Pollen Not available.
Air Quality Not available.
Flu Activity Not available.
METAR EDLW 231350Z 19009KT CAVOK 15/08 Q1016 RMK ATIS U

More Conditions Fewer Conditions

10-Day Weather Forecast

Almanac

Astronomy

Nov. 23, 2014 Rise Set
Actual Time
Civil Twilight
Nautical Twilight
Astronomical Twilight
Moon
Length of Visible Light
Length of Day
Tomorrow will be .
, % of the Moon is Illuminated

Today's Extremes

Country Highs Country Lows

Community

WunderPhotos

Upload Photos

1,773,062 photos uploaded!

WunderBlogs® & News

Nearby

Air Quality

  Air Quality AQ Index Pollutant
Not available.

Snow Depth

Station Depth Elevation

Earthquake Activity

City Distance Mag. Time & Date
Minimum magnitude displayed is 2.5.

Coastal Water Temperatures

Place Temperature

Nearby Weather Stations